Terminal Aerodrome Forecast
Issued by NWS

Home | Current Version | Previous Version | Text Only | Print | Product List | Glossary On
Versions: 1 2 3 4 5 6 7 8 9 10 11 12 13 14 15 16 17
000
FTUS44 KBMX 261127
TAFMGM
TAF
KMGM 261127Z 2612/2712 23004KT 6SM BR SCT003 BKN015
      TEMPO 2612/2614 2SM BR BKN003
     FM261600 28012KT P6SM BKN250
     FM270300 33011KT P6SM SCT250=

USA.gov is the U.S. government's official web portal to all federal, state and local government web resources and services.